Time;durP1;ratioP1;P1;durP2;ratioP2;P2;SDS_P1;SDS_P2;PMS_P1;PMS_P2;Temp;Humidity;BMP_temperature;BMP_pressure;BME280_temperature;BME280_humidity;BME280_pressure;Samples;Min_cycle;Max_cycle;Signal;HPM_P1;HPM_P2
2020/12/28 00:01:42;;;;;;;2.10;0.40;;;17.90;59.80;;;;;;4970171;28;20205;-55
2020/12/28 00:04:09;;;;;;;0.67;0.47;;;17.90;59.80;;;;;;4963311;28;20212;-56
2020/12/28 00:06:35;;;;;;;0.50;0.33;;;17.90;59.90;;;;;;4969764;28;20208;-56
2020/12/28 00:09:03;;;;;;;0.50;0.40;;;17.90;60.00;;;;;;4963664;28;20213;-56
2020/12/28 00:11:29;;;;;;;0.90;0.40;;;17.90;60.00;;;;;;4970236;28;20205;-56
2020/12/28 00:13:55;;;;;;;0.50;0.30;;;17.90;59.90;;;;;;4964964;28;20220;-56
2020/12/28 00:16:22;;;;;;;0.60;0.43;;;17.90;60.00;;;;;;4970487;28;20242;-56
2020/12/28 00:18:48;;;;;;;0.50;0.50;;;17.90;59.90;;;;;;4964766;28;20209;-55
2020/12/28 00:21:15;;;;;;;0.83;0.40;;;17.80;60.00;;;;;;4973550;28;20203;-55
2020/12/28 00:23:41;;;;;;;0.40;0.30;;;17.80;59.90;;;;;;4970320;28;20197;-56
2020/12/28 00:26:07;;;;;;;0.80;0.40;;;17.80;60.00;;;;;;4961724;28;20247;-56
2020/12/28 00:28:34;;;;;;;0.40;0.40;;;17.80;60.10;;;;;;4972367;28;20233;-56
2020/12/28 00:31:00;;;;;;;1.10;0.40;;;17.80;60.20;;;;;;4963871;28;20216;-56
2020/12/28 00:33:26;;;;;;;0.40;0.30;;;17.70;60.00;;;;;;4979008;28;20236;-56
2020/12/28 00:35:52;;;;;;;0.60;0.40;;;17.70;60.20;;;;;;4961685;28;20390;-56
2020/12/28 00:38:19;;;;;;;0.43;0.33;;;17.70;60.30;;;;;;4972861;28;20224;-56
2020/12/28 00:40:45;;;;;;;1.13;0.50;;;17.70;60.20;;;;;;4964373;28;20676;-56
2020/12/28 00:43:11;;;;;;;0.50;0.40;;;17.70;60.30;;;;;;4971362;28;20557;-55
2020/12/28 00:45:37;;;;;;;0.67;0.30;;;17.70;60.30;;;;;;4962291;28;20193;-55
2020/12/28 00:48:04;;;;;;;0.63;0.30;;;17.70;60.40;;;;;;4971706;28;20204;-56
2020/12/28 00:50:30;;;;;;;1.90;0.50;;;17.60;60.30;;;;;;4965126;28;20598;-55
2020/12/28 00:52:56;;;;;;;0.87;0.40;;;17.60;60.10;;;;;;4970913;28;20703;-55
2020/12/28 00:55:22;;;;;;;1.90;0.30;;;17.60;60.00;;;;;;4961681;28;20568;-55
2020/12/28 00:57:49;;;;;;;0.60;0.40;;;17.60;60.00;;;;;;4971954;28;20579;-55
2020/12/28 01:00:15;;;;;;;0.80;0.40;;;17.50;60.20;;;;;;4970278;28;20197;-55
2020/12/28 01:02:41;;;;;;;0.60;0.30;;;17.50;60.10;;;;;;4966892;28;20197;-55
2020/12/28 01:05:08;;;;;;;1.13;0.43;;;17.50;60.30;;;;;;4968982;28;20197;-55
2020/12/28 01:07:34;;;;;;;0.50;0.30;;;17.50;60.00;;;;;;4965933;28;20200;-56
2020/12/28 01:10:00;;;;;;;0.80;0.60;;;17.50;60.20;;;;;;4974144;28;20649;-55
2020/12/28 01:12:27;;;;;;;0.97;0.50;;;17.50;60.40;;;;;;4962941;28;20208;-55
2020/12/28 01:14:53;;;;;;;1.07;0.47;;;17.50;60.40;;;;;;4972010;28;20262;-55
2020/12/28 01:17:20;;;;;;;0.30;0.30;;;17.50;60.40;;;;;;4962524;28;20217;-55
2020/12/28 01:19:46;;;;;;;1.90;0.40;;;17.40;60.50;;;;;;4973819;28;20197;-57
2020/12/28 01:22:12;;;;;;;0.97;0.20;;;17.40;60.30;;;;;;4963483;28;20223;-57
2020/12/28 01:24:39;;;;;;;1.47;0.40;;;17.40;60.10;;;;;;4971420;28;20203;-57
2020/12/28 01:27:05;;;;;;;0.60;0.50;;;17.40;60.30;;;;;;4962925;28;20658;-56
2020/12/28 01:29:36;;;;;;;0.30;0.30;;;17.40;60.30;;;;;;4971954;28;20198;-56
2020/12/28 01:32:03;;;;;;;1.13;0.30;;;17.40;60.20;;;;;;4962880;28;20215;-55
2020/12/28 01:34:29;;;;;;;1.77;0.40;;;17.40;60.60;;;;;;4976854;28;20293;-56
2020/12/28 01:36:55;;;;;;;0.50;0.30;;;17.40;60.50;;;;;;4969776;28;20208;-56
2020/12/28 01:39:22;;;;;;;0.60;0.47;;;17.40;60.50;;;;;;4972120;28;20287;-55
2020/12/28 01:41:48;;;;;;;0.80;0.33;;;17.40;60.30;;;;;;4973334;28;20201;-56
2020/12/28 01:44:15;;;;;;;0.80;0.40;;;17.30;60.30;;;;;;4965150;28;20255;-55
2020/12/28 01:46:41;;;;;;;0.53;0.20;;;17.30;60.60;;;;;;4978421;28;20634;-55
2020/12/28 01:49:07;;;;;;;0.60;0.40;;;17.30;60.60;;;;;;4965290;28;20212;-55
2020/12/28 01:51:34;;;;;;;0.40;0.40;;;17.30;60.80;;;;;;4975052;28;20728;-55
2020/12/28 01:54:01;;;;;;;0.70;0.33;;;17.30;60.70;;;;;;4963539;28;20676;-56
2020/12/28 01:56:28;;;;;;;0.40;0.30;;;17.20;60.50;;;;;;4972689;28;20201;-55
2020/12/28 01:58:54;;;;;;;0.53;0.30;;;17.30;60.40;;;;;;4965659;28;20261;-56
2020/12/28 02:01:25;;;;;;;0.50;0.47;;;17.20;60.50;;;;;;4975946;28;20189;-56
2020/12/28 02:03:51;;;;;;;0.50;0.30;;;17.20;60.50;;;;;;4968205;28;20204;-55
2020/12/28 02:06:18;;;;;;;0.37;0.33;;;17.20;60.60;;;;;;4973701;28;20654;-56
2020/12/28 02:08:44;;;;;;;0.60;0.37;;;17.20;60.60;;;;;;4964850;28;20208;-55
2020/12/28 02:11:11;;;;;;;0.87;0.40;;;17.20;60.60;;;;;;4975339;28;20197;-56
2020/12/28 02:13:37;;;;;;;0.60;0.30;;;17.20;60.70;;;;;;4963388;28;20226;-56
2020/12/28 02:16:03;;;;;;;0.70;0.33;;;17.20;60.60;;;;;;4976267;28;20743;-56
2020/12/28 02:18:29;;;;;;;0.30;0.30;;;17.20;60.80;;;;;;4973625;28;20217;-55
2020/12/28 02:20:56;;;;;;;1.33;0.47;;;17.10;60.60;;;;;;4968288;28;20197;-56
2020/12/28 02:23:22;;;;;;;0.83;0.40;;;17.10;60.60;;;;;;4971878;28;20197;-55
2020/12/28 02:25:48;;;;;;;0.30;0.20;;;17.10;60.70;;;;;;4967003;28;20218;-56
2020/12/28 02:28:15;;;;;;;0.40;0.30;;;17.10;60.80;;;;;;4973974;28;20204;-55
2020/12/28 02:30:42;;;;;;;0.80;0.30;;;17.10;60.60;;;;;;4967926;28;20209;-55
2020/12/28 02:33:08;;;;;;;2.30;0.50;;;17.00;60.50;;;;;;4972785;28;20461;-56
2020/12/28 02:35:34;;;;;;;0.20;0.20;;;17.10;61.30;;;;;;4967931;28;20220;-56
2020/12/28 02:38:00;;;;;;;0.43;0.20;;;17.00;60.50;;;;;;4975239;28;20700;-56
2020/12/28 02:40:27;;;;;;;1.23;0.43;;;17.00;60.50;;;;;;4967633;28;20205;-55
2020/12/28 02:42:53;;;;;;;0.40;0.30;;;17.00;60.60;;;;;;4973401;28;20615;-57
2020/12/28 02:45:19;;;;;;;1.83;0.20;;;17.00;60.70;;;;;;4966785;28;20567;-56
2020/12/28 02:47:46;;;;;;;0.70;0.40;;;17.00;60.60;;;;;;4972330;28;20212;-56
2020/12/28 02:50:12;;;;;;;1.80;0.20;;;17.00;60.50;;;;;;4966494;28;20201;-55
2020/12/28 02:52:39;;;;;;;0.97;0.40;;;17.00;60.70;;;;;;4971379;28;20515;-56
2020/12/28 02:55:05;;;;;;;1.03;0.40;;;17.00;60.80;;;;;;4974741;28;20665;-55
2020/12/28 02:57:32;;;;;;;0.40;0.30;;;17.00;60.50;;;;;;4963450;28;20589;-55
2020/12/28 02:59:58;;;;;;;0.50;0.33;;;17.00;60.50;;;;;;4974781;28;20197;-55
2020/12/28 03:02:24;;;;;;;0.50;0.30;;;17.00;60.50;;;;;;4963321;28;20201;-55
2020/12/28 03:04:50;;;;;;;0.60;0.40;;;17.00;60.60;;;;;;4973380;28;20204;-55
2020/12/28 03:07:16;;;;;;;0.20;0.10;;;16.90;60.40;;;;;;4964949;28;20204;-55
2020/12/28 03:09:43;;;;;;;0.67;0.30;;;16.90;60.10;;;;;;4972966;28;20208;-55
2020/12/28 03:12:09;;;;;;;0.60;0.30;;;16.90;60.40;;;;;;4964436;28;20204;-56
2020/12/28 03:14:35;;;;;;;0.20;0.20;;;16.90;60.50;;;;;;4974951;28;20200;-56
2020/12/28 03:17:01;;;;;;;0.70;0.30;;;16.90;60.50;;;;;;4965063;28;20201;-55
2020/12/28 03:19:27;;;;;;;0.53;0.40;;;16.90;60.40;;;;;;4973756;28;20212;-55
2020/12/28 03:21:54;;;;;;;0.70;0.33;;;16.90;60.60;;;;;;4964059;28;21095;-56
2020/12/28 03:24:21;;;;;;;0.23;0.23;;;16.90;60.60;;;;;;4973406;28;20209;-55
2020/12/28 03:26:47;;;;;;;0.37;0.37;;;16.80;60.40;;;;;;4964614;28;20209;-55
2020/12/28 03:29:13;;;;;;;0.60;0.30;;;16.80;60.50;;;;;;4973634;28;20201;-55
2020/12/28 03:31:41;;;;;;;0.30;0.17;;;16.80;60.60;;;;;;4968377;28;20700;-55
2020/12/28 03:34:07;;;;;;;1.93;0.30;;;16.80;60.50;;;;;;4976851;28;20248;-55
2020/12/28 03:36:35;;;;;;;0.70;0.30;;;16.80;60.60;;;;;;4970981;28;20205;-55
2020/12/28 03:39:03;;;;;;;0.30;0.20;;;16.80;60.50;;;;;;4964575;28;20240;-55
2020/12/28 03:41:31;;;;;;;0.80;0.30;;;16.80;60.50;;;;;;4969954;28;20216;-55
2020/12/28 03:43:58;;;;;;;1.40;0.30;;;16.80;60.30;;;;;;4967166;28;20201;-55
2020/12/28 03:46:24;;;;;;;2.40;0.33;;;16.80;60.60;;;;;;4971213;28;20205;-55
2020/12/28 03:48:50;;;;;;;0.40;0.40;;;16.70;60.50;;;;;;4966559;28;20201;-55
2020/12/28 03:51:16;;;;;;;4.10;0.40;;;16.80;60.60;;;;;;4971809;28;20212;-55
2020/12/28 03:53:42;;;;;;;0.23;0.23;;;16.70;60.40;;;;;;4962186;28;20552;-55
2020/12/28 03:56:09;;;;;;;0.90;0.33;;;16.70;60.50;;;;;;4972444;28;20291;-57
2020/12/28 03:58:35;;;;;;;0.90;0.30;;;16.70;60.40;;;;;;4965978;28;20760;-55
2020/12/28 04:01:03;;;;;;;0.60;0.30;;;16.80;60.60;;;;;;4969570;28;20207;-55
2020/12/28 04:03:29;;;;;;;0.30;0.30;;;16.70;60.40;;;;;;4966168;28;20252;-55
2020/12/28 04:05:56;;;;;;;0.43;0.20;;;16.70;60.60;;;;;;4972473;28;20196;-55
2020/12/28 04:08:22;;;;;;;0.63;0.40;;;16.70;60.70;;;;;;4964233;28;20219;-55
2020/12/28 04:10:49;;;;;;;0.87;0.43;;;16.70;60.70;;;;;;4970589;28;20212;-55
2020/12/28 04:13:15;;;;;;;0.60;0.30;;;16.70;60.40;;;;;;4971702;28;20204;-55
2020/12/28 04:15:42;;;;;;;0.60;0.30;;;16.60;60.30;;;;;;4963747;28;20221;-55
2020/12/28 04:18:08;;;;;;;0.30;0.30;;;16.70;60.50;;;;;;4971744;28;20217;-55
2020/12/28 04:20:34;;;;;;;0.73;0.40;;;16.70;60.50;;;;;;4964523;28;20407;-55
2020/12/28 04:23:01;;;;;;;0.40;0.37;;;16.60;60.40;;;;;;4971775;28;20201;-55
2020/12/28 04:25:27;;;;;;;0.70;0.23;;;16.60;60.40;;;;;;4963393;28;20201;-56
2020/12/28 04:27:53;;;;;;;0.30;0.30;;;16.60;60.30;;;;;;4975024;28;20211;-55
2020/12/28 04:30:20;;;;;;;0.73;0.43;;;16.60;60.30;;;;;;4964782;28;20569;-55
2020/12/28 04:32:47;;;;;;;1.13;0.53;;;16.60;60.40;;;;;;4970159;28;20752;-55
2020/12/28 04:35:16;;;;;;;0.57;0.40;;;16.60;60.40;;;;;;4963281;28;20662;-55
2020/12/28 04:37:42;;;;;;;0.40;0.40;;;16.60;60.20;;;;;;4971600;28;20221;-55
2020/12/28 04:40:09;;;;;;;0.40;0.30;;;16.60;60.30;;;;;;4963251;28;20778;-55
2020/12/28 04:42:41;;;;;;;0.60;0.40;;;16.60;60.20;;;;;;4971541;28;20287;-55
2020/12/28 04:45:08;;;;;;;0.50;0.33;;;16.50;60.20;;;;;;4964956;28;20197;-55
2020/12/28 04:47:35;;;;;;;0.40;0.40;;;16.50;60.00;;;;;;4969677;28;20705;-55
2020/12/28 04:50:01;;;;;;;1.00;0.43;;;16.60;60.20;;;;;;4966045;28;20693;-55
2020/12/28 04:52:27;;;;;;;0.77;0.30;;;16.50;60.00;;;;;;4965175;28;20205;-56
2020/12/28 04:54:53;;;;;;;0.50;0.30;;;16.50;60.00;;;;;;4972316;28;20839;-55
2020/12/28 04:57:25;;;;;;;0.67;0.40;;;16.50;59.90;;;;;;4962065;28;20236;-55
2020/12/28 04:59:56;;;;;;;0.80;0.40;;;16.50;59.70;;;;;;4972649;28;20189;-55
2020/12/28 05:02:23;;;;;;;0.50;0.40;;;16.50;59.70;;;;;;4962644;28;20229;-55
2020/12/28 05:04:50;;;;;;;0.50;0.50;;;16.50;59.60;;;;;;4970856;28;20200;-56
2020/12/28 05:07:17;;;;;;;0.20;0.20;;;16.50;59.80;;;;;;4954825;28;20197;-55
2020/12/28 05:09:43;;;;;;;0.93;0.40;;;16.50;59.70;;;;;;4971747;28;20207;-55
2020/12/28 05:12:10;;;;;;;0.90;0.50;;;16.50;59.70;;;;;;4962648;28;20209;-55
2020/12/28 05:14:37;;;;;;;1.53;0.40;;;16.50;59.70;;;;;;4970492;28;20676;-55
2020/12/28 05:17:08;;;;;;;0.40;0.40;;;16.50;59.70;;;;;;4961369;28;20220;-55
2020/12/28 05:19:36;;;;;;;0.50;0.40;;;16.50;59.60;;;;;;4971883;28;20209;-55
2020/12/28 05:22:03;;;;;;;2.20;0.67;;;16.50;59.60;;;;;;4962833;28;20738;-56
2020/12/28 05:24:29;;;;;;;0.93;0.40;;;16.50;59.40;;;;;;4972199;28;20642;-55
2020/12/28 05:26:57;;;;;;;1.47;0.37;;;16.40;59.60;;;;;;4961877;28;20205;-55
2020/12/28 05:29:26;;;;;;;0.50;0.40;;;16.40;59.60;;;;;;4971374;28;20197;-55
2020/12/28 05:31:54;;;;;;;0.20;0.20;;;16.40;59.60;;;;;;4961183;28;20209;-55
2020/12/28 05:34:25;;;;;;;0.57;0.50;;;16.50;59.60;;;;;;4951875;28;20205;-55
2020/12/28 05:36:58;;;;;;;0.90;0.37;;;16.40;59.60;;;;;;4948261;28;20233;-55
2020/12/28 05:39:28;;;;;;;0.77;0.40;;;16.40;59.50;;;;;;4932728;29;20214;-56
2020/12/28 05:41:55;;;;;;;3.70;0.57;;;16.40;59.50;;;;;;4946391;28;20288;-55
2020/12/28 05:44:26;;;;;;;0.57;0.40;;;16.50;59.40;;;;;;4938529;28;20239;-55
2020/12/28 05:47:10;;;;;;;2.50;0.30;;;16.40;59.40;;;;;;4949363;28;20196;-55
2020/12/28 05:49:41;;;;;;;1.53;0.50;;;16.40;59.30;;;;;;4945363;28;20198;-55
2020/12/28 05:52:09;;;;;;;0.63;0.30;;;16.40;59.40;;;;;;4948812;28;20248;-55
2020/12/28 05:54:36;;;;;;;0.40;0.30;;;16.40;59.40;;;;;;4941558;28;20229;-55
2020/12/28 05:57:04;;;;;;;1.03;0.30;;;16.40;59.40;;;;;;4949370;28;20206;-55
2020/12/28 05:59:35;;;;;;;0.87;0.33;;;16.40;59.30;;;;;;4944844;28;20219;-55
2020/12/28 06:02:03;;;;;;;1.30;0.40;;;16.40;59.30;;;;;;4950312;28;20209;-55
2020/12/28 06:04:29;;;;;;;0.50;0.30;;;16.40;59.30;;;;;;4942362;28;20245;-56
2020/12/28 06:07:03;;;;;;;0.53;0.50;;;16.40;59.20;;;;;;4951027;28;20202;-54
2020/12/28 06:09:29;;;;;;;0.70;0.37;;;16.40;59.20;;;;;;4939831;28;20264;-55
2020/12/28 06:12:04;;;;;;;0.57;0.30;;;16.40;59.20;;;;;;4950257;28;20601;-55
2020/12/28 06:14:40;;;;;;;0.50;0.50;;;16.40;59.20;;;;;;4940556;28;20201;-55
2020/12/28 06:17:11;;;;;;;0.40;0.37;;;16.40;59.20;;;;;;4949242;28;20611;-55
2020/12/28 06:19:38;;;;;;;0.80;0.50;;;16.40;59.10;;;;;;4944660;28;20228;-55
2020/12/28 06:22:24;;;;;;;1.03;0.70;;;16.30;59.00;;;;;;4953260;28;20555;-54
2020/12/28 06:25:03;;;;;;;0.40;0.33;;;16.30;59.60;;;;;;4947428;28;20269;-55
2020/12/28 06:27:32;;;;;;;0.53;0.40;;;16.30;59.00;;;;;;4955531;28;20205;-55
2020/12/28 06:30:22;;;;;;;0.67;0.30;;;16.30;59.00;;;;;;4947062;28;20197;-55
2020/12/28 06:33:01;;;;;;;1.50;0.40;;;16.30;58.90;;;;;;4963308;28;20229;-55
2020/12/28 06:35:28;;;;;;;0.73;0.40;;;16.30;58.90;;;;;;4964397;28;20246;-55
2020/12/28 06:37:55;;;;;;;0.20;0.20;;;16.30;58.90;;;;;;4974461;28;20220;-55
2020/12/28 06:40:39;;;;;;;0.63;0.40;;;16.30;58.80;;;;;;4963181;28;20657;-55
2020/12/28 06:43:06;;;;;;;0.63;0.30;;;16.30;58.90;;;;;;4973602;28;20698;-55
2020/12/28 06:45:33;;;;;;;0.50;0.30;;;16.30;58.70;;;;;;4965244;28;20680;-54
2020/12/28 06:47:59;;;;;;;0.47;0.20;;;16.30;58.70;;;;;;4977827;28;20197;-55
2020/12/28 06:50:25;;;;;;;0.67;0.37;;;16.30;58.80;;;;;;4964364;28;20205;-55
2020/12/28 06:52:52;;;;;;;1.00;0.50;;;16.30;58.60;;;;;;4974703;28;20211;-54
2020/12/28 06:55:22;;;;;;;0.70;0.20;;;16.20;58.50;;;;;;4964782;28;20205;-55
2020/12/28 06:57:49;;;;;;;0.40;0.40;;;16.30;58.50;;;;;;4973573;28;20307;-56
2020/12/28 07:00:20;;;;;;;0.60;0.60;;;16.30;58.60;;;;;;4973910;28;20209;-55
2020/12/28 07:02:53;;;;;;;0.60;0.33;;;16.20;58.50;;;;;;4968091;28;20215;-57
2020/12/28 07:05:22;;;;;;;0.73;0.60;;;16.30;58.50;;;;;;4973311;28;20204;-55
2020/12/28 07:07:49;;;;;;;0.40;0.30;;;16.30;58.40;;;;;;4963489;28;20573;-55
2020/12/28 07:10:23;;;;;;;0.90;0.40;;;16.20;58.40;;;;;;4973539;28;20213;-55
2020/12/28 07:12:50;;;;;;;2.10;0.33;;;16.30;58.40;;;;;;4966077;28;20208;-55
2020/12/28 07:15:18;;;;;;;0.67;0.60;;;16.30;58.40;;;;;;4971784;28;20255;-55
2020/12/28 07:17:45;;;;;;;0.23;0.20;;;16.20;58.30;;;;;;4962536;28;20246;-55
2020/12/28 07:20:13;;;;;;;1.53;0.30;;;16.20;58.30;;;;;;4972804;28;20193;-55
2020/12/28 07:22:41;;;;;;;0.40;0.30;;;16.20;58.30;;;;;;4963381;28;20205;-55
2020/12/28 07:25:09;;;;;;;0.87;0.50;;;16.20;58.30;;;;;;4971348;28;20193;-55
2020/12/28 07:27:39;;;;;;;2.27;0.33;;;16.20;58.30;;;;;;4962921;28;20898;-55
2020/12/28 07:30:10;;;;;;;0.40;0.30;;;16.20;58.30;;;;;;4971749;28;20212;-54
2020/12/28 07:32:40;;;;;;;0.80;0.30;;;16.20;58.30;;;;;;4969830;28;20228;-56
2020/12/28 07:35:07;;;;;;;1.30;0.60;;;16.20;58.30;;;;;;4973422;28;20208;-55
2020/12/28 07:37:42;;;;;;;0.53;0.30;;;16.20;58.30;;;;;;4971320;28;20194;-55
2020/12/28 07:40:09;;;;;;;1.23;0.30;;;16.20;58.30;;;;;;4973727;28;20194;-56
2020/12/28 07:42:36;;;;;;;1.17;0.40;;;16.20;58.20;;;;;;4961911;28;20201;-56
2020/12/28 07:45:11;;;;;;;0.50;0.30;;;16.20;58.30;;;;;;4968600;28;20197;-55
2020/12/28 07:47:48;;;;;;;2.73;0.50;;;16.20;58.50;;;;;;4960829;28;20212;-57
2020/12/28 07:50:16;;;;;;;4.90;0.60;;;16.60;58.50;;;;;;4971779;28;20584;-56
2020/12/28 07:52:54;;;;;;;0.80;0.33;;;17.10;57.50;;;;;;4962573;28;20208;-57
2020/12/28 07:55:24;;;;;;;0.70;0.40;;;17.50;56.50;;;;;;4966825;28;20208;-56
2020/12/28 07:58:12;;;;;;;0.63;0.40;;;17.90;55.70;;;;;;4963671;28;20225;-57
2020/12/28 08:00:51;;;;;;;0.83;0.30;;;18.10;54.90;;;;;;4973353;28;20248;-56
2020/12/28 08:03:50;;;;;;;0.40;0.30;;;18.40;54.30;;;;;;4961239;28;20232;-56
2020/12/28 08:06:17;;;;;;;2.23;0.40;;;18.60;53.90;;;;;;4973953;28;20200;-56
2020/12/28 08:08:44;;;;;;;0.90;0.40;;;18.70;53.50;;;;;;4961459;28;20212;-56
2020/12/28 08:11:11;;;;;;;0.47;0.30;;;18.90;53.30;;;;;;4969932;28;20209;-55
2020/12/28 08:13:37;;;;;;;0.47;0.30;;;19.00;53.10;;;;;;4962925;28;20204;-56
2020/12/28 08:16:11;;;;;;;0.53;0.40;;;19.10;52.80;;;;;;4985830;28;20201;-56
2020/12/28 08:18:48;;;;;;;0.80;0.40;;;19.20;52.40;;;;;;4963587;28;20242;-56
2020/12/28 08:21:16;;;;;;;1.13;0.40;;;19.30;52.30;;;;;;4970496;28;20208;-56
2020/12/28 08:23:53;;;;;;;0.70;0.33;;;19.40;51.90;;;;;;4971831;28;20630;-56
2020/12/28 08:26:21;;;;;;;0.50;0.30;;;19.50;51.70;;;;;;4967849;28;20207;-56
2020/12/28 08:28:52;;;;;;;2.33;0.70;;;19.60;51.50;;;;;;4968721;28;20205;-56
2020/12/28 08:31:29;;;;;;;1.13;0.60;;;19.70;51.20;;;;;;4967143;28;20216;-56
2020/12/28 08:34:09;;;;;;;0.50;0.50;;;19.80;51.20;;;;;;4970740;28;20238;-55
2020/12/28 08:36:37;;;;;;;0.80;0.60;;;19.80;51.00;;;;;;4961987;28;20207;-56
2020/12/28 08:39:16;;;;;;;1.10;0.37;;;19.90;50.70;;;;;;4970114;28;20232;-56
2020/12/28 08:41:57;;;;;;;1.23;0.53;;;20.10;50.20;;;;;;4961176;28;20200;-56
2020/12/28 08:44:28;;;;;;;1.23;0.40;;;20.10;50.00;;;;;;4972713;28;20212;-56
2020/12/28 08:46:59;;;;;;;0.60;0.43;;;20.20;50.00;;;;;;4962479;28;20208;-57
2020/12/28 08:49:33;;;;;;;0.80;0.47;;;20.20;50.00;;;;;;4970448;28;20207;-56
2020/12/28 08:52:09;;;;;;;1.13;0.60;;;20.20;49.90;;;;;;4962288;28;20205;-56
2020/12/28 08:54:36;;;;;;;0.60;0.43;;;20.30;49.70;;;;;;4970529;28;20205;-56
2020/12/28 08:57:02;;;;;;;1.33;0.60;;;20.30;49.50;;;;;;4963745;28;20209;-56
2020/12/28 08:59:28;;;;;;;2.90;0.67;;;20.40;49.20;;;;;;4969313;28;20217;-57
2020/12/28 09:01:56;;;;;;;10.40;1.50;;;20.50;49.10;;;;;;4962631;28;20203;-56
2020/12/28 09:04:23;;;;;;;10.00;1.63;;;20.50;49.20;;;;;;4971025;28;20200;-56
2020/12/28 09:06:51;;;;;;;11.47;1.50;;;20.60;49.10;;;;;;4962575;28;20215;-56
2020/12/28 09:09:18;;;;;;;11.03;1.50;;;20.60;48.90;;;;;;4968515;28;20551;-56
2020/12/28 09:11:45;;;;;;;9.77;1.40;;;20.70;48.90;;;;;;4962713;28;20209;-56
2020/12/28 09:14:12;;;;;;;5.30;1.37;;;20.60;48.70;;;;;;4984449;28;20214;-56
2020/12/28 09:16:39;;;;;;;5.33;1.10;;;20.70;48.70;;;;;;4963476;28;20205;-62
2020/12/28 09:19:06;;;;;;;5.83;1.33;;;20.70;48.70;;;;;;4971018;28;20217;-55
2020/12/28 09:21:32;;;;;;;6.27;1.40;;;20.80;48.60;;;;;;4964027;28;20681;-56
2020/12/28 09:23:59;;;;;;;6.00;1.13;;;20.80;48.60;;;;;;4963925;28;20720;-56
2020/12/28 09:26:28;;;;;;;10.63;1.87;;;20.90;49.70;;;;;;4967879;28;20216;-56
2020/12/28 09:28:55;;;;;;;9.60;1.70;;;21.00;49.60;;;;;;4966227;28;20307;-57
2020/12/28 09:31:21;;;;;;;6.53;1.57;;;21.10;49.40;;;;;;4970225;28;20566;-55
2020/12/28 09:33:49;;;;;;;7.17;1.67;;;21.20;49.10;;;;;;4960519;28;20260;-54
2020/12/28 09:36:19;;;;;;;14.30;2.47;;;21.30;49.00;;;;;;4970901;28;20204;-56
2020/12/28 09:38:47;;;;;;;11.63;2.10;;;21.40;48.80;;;;;;4961622;28;21473;-54
2020/12/28 09:41:14;;;;;;;12.80;2.10;;;21.40;49.40;;;;;;4970106;28;20209;-54
2020/12/28 09:43:41;;;;;;;13.90;2.43;;;21.40;49.00;;;;;;4962628;28;20197;-54
2020/12/28 09:46:09;;;;;;;11.57;1.90;;;21.50;48.90;;;;;;4970547;28;20216;-53
2020/12/28 09:48:40;;;;;;;12.90;2.57;;;21.50;48.20;;;;;;4961629;28;20216;-52
2020/12/28 09:51:06;;;;;;;10.17;2.13;;;21.50;47.80;;;;;;4969873;28;20256;-55
2020/12/28 09:53:32;;;;;;;11.27;1.90;;;21.50;47.50;;;;;;4960979;28;20217;-56
2020/12/28 09:55:59;;;;;;;7.77;2.03;;;21.20;48.20;;;;;;4971712;28;20513;-53
2020/12/28 09:58:25;;;;;;;5.33;1.50;;;20.70;49.40;;;;;;4965303;28;20229;-53
2020/12/28 10:00:54;;;;;;;6.07;1.60;;;20.40;50.20;;;;;;4973113;28;20228;-53
2020/12/28 10:03:20;;;;;;;5.37;1.67;;;20.20;50.30;;;;;;4963243;28;20213;-53
2020/12/28 10:05:46;;;;;;;11.47;2.00;;;20.00;51.90;;;;;;4968870;28;20235;-53
2020/12/28 10:08:12;;;;;;;5.70;1.43;;;19.90;52.40;;;;;;4966378;28;20204;-53
2020/12/28 10:10:39;;;;;;;4.77;1.50;;;19.80;52.20;;;;;;4973226;28;20208;-54
2020/12/28 10:13:06;;;;;;;6.60;1.70;;;19.70;52.40;;;;;;4971554;28;20215;-53
2020/12/28 10:15:32;;;;;;;4.73;1.10;;;19.70;52.40;;;;;;4965575;28;20217;-53
2020/12/28 10:18:21;;;;;;;4.20;1.83;;;19.60;52.40;;;;;;4977625;28;20201;-53
2020/12/28 10:20:51;;;;;;;5.23;1.57;;;19.50;52.50;;;;;;4963655;28;20208;-55
2020/12/28 10:23:17;;;;;;;2.30;1.03;;;19.50;52.80;;;;;;4972640;28;20200;-54
2020/12/28 10:25:44;;;;;;;3.17;1.47;;;20.00;51.70;;;;;;4965263;28;20239;-56
2020/12/28 10:28:10;;;;;;;6.97;1.33;;;20.70;50.00;;;;;;4971532;28;20197;-58
2020/12/28 10:30:37;;;;;;;2.93;1.37;;;21.00;49.30;;;;;;4966523;28;20224;-58
2020/12/28 10:33:03;;;;;;;3.43;1.20;;;21.20;48.70;;;;;;4971850;28;20235;-57
2020/12/28 10:35:29;;;;;;;1.77;1.07;;;21.50;47.80;;;;;;4965410;28;20209;-53
2020/12/28 10:37:56;;;;;;;3.77;1.30;;;21.50;47.40;;;;;;4973471;28;20212;-54
2020/12/28 10:40:22;;;;;;;2.77;1.33;;;21.70;47.00;;;;;;4961036;28;20676;-53
2020/12/28 10:43:03;;;;;;;8.70;1.70;;;21.80;46.60;;;;;;4973717;28;20193;-55
2020/12/28 10:45:30;;;;;;;3.50;1.20;;;21.80;46.30;;;;;;4963210;28;20204;-56
2020/12/28 10:47:56;;;;;;;3.13;1.40;;;22.00;46.20;;;;;;4972243;28;20193;-57
2020/12/28 10:50:22;;;;;;;3.00;1.60;;;22.00;45.80;;;;;;4963748;28;20215;-57
2020/12/28 10:52:48;;;;;;;3.83;1.20;;;22.10;45.70;;;;;;4972328;28;20570;-56
2020/12/28 10:55:16;;;;;;;3.93;1.30;;;22.20;45.50;;;;;;4960116;28;20251;-57
2020/12/28 10:57:42;;;;;;;2.13;1.20;;;22.30;45.10;;;;;;4969832;28;20205;-56
2020/12/28 11:00:08;;;;;;;2.73;1.60;;;22.20;45.30;;;;;;4974501;28;20212;-56
2020/12/28 11:02:34;;;;;;;3.03;1.40;;;22.10;45.60;;;;;;4962030;28;20820;-55
2020/12/28 11:05:00;;;;;;;3.00;1.40;;;22.10;45.80;;;;;;4970800;28;20643;-55
2020/12/28 11:07:27;;;;;;;1.77;1.30;;;22.20;46.00;;;;;;4966665;28;20225;-56
2020/12/28 11:09:53;;;;;;;1.40;1.00;;;22.10;46.30;;;;;;4971291;28;20255;-56
2020/12/28 11:12:19;;;;;;;2.37;1.10;;;22.10;46.30;;;;;;4962750;28;20298;-54
2020/12/28 11:14:45;;;;;;;2.37;1.10;;;22.20;46.40;;;;;;4974016;28;20208;-54
2020/12/28 11:17:11;;;;;;;4.37;1.40;;;21.70;47.00;;;;;;4966803;28;20204;-54
2020/12/28 11:19:38;;;;;;;2.80;1.00;;;21.20;48.00;;;;;;4971558;28;20209;-54
2020/12/28 11:22:04;;;;;;;3.47;1.20;;;20.90;48.70;;;;;;4967351;28;20331;-55
2020/12/28 11:24:30;;;;;;;4.13;1.03;;;20.80;49.00;;;;;;4969518;28;20208;-55
2020/12/28 11:26:56;;;;;;;3.77;1.17;;;20.60;49.10;;;;;;4963152;28;20236;-54
2020/12/28 11:29:23;;;;;;;1.70;1.00;;;20.50;49.40;;;;;;4975000;28;20641;-55
2020/12/28 11:31:49;;;;;;;2.13;1.10;;;20.40;49.60;;;;;;4962901;28;20582;-54
2020/12/28 11:34:16;;;;;;;1.60;0.90;;;20.30;49.50;;;;;;4969852;28;20247;-54
2020/12/28 11:36:42;;;;;;;2.30;0.97;;;20.20;49.80;;;;;;4968937;28;20744;-54
2020/12/28 11:39:11;;;;;;;1.33;0.90;;;20.10;49.80;;;;;;4965036;28;20836;-55
2020/12/28 11:41:38;;;;;;;1.27;0.90;;;20.10;50.00;;;;;;4969577;28;20627;-54
2020/12/28 11:44:06;;;;;;;1.40;1.00;;;20.00;50.20;;;;;;4963531;28;20251;-55
2020/12/28 11:46:32;;;;;;;2.30;0.90;;;19.90;50.10;;;;;;4971936;28;20874;-55
2020/12/28 11:48:58;;;;;;;1.80;1.00;;;19.90;50.20;;;;;;4964278;28;20212;-56
2020/12/28 11:51:25;;;;;;;3.90;0.97;;;19.90;51.70;;;;;;4969964;28;20201;-56
2020/12/28 11:53:51;;;;;;;1.87;1.07;;;19.90;51.50;;;;;;4962810;28;20778;-55
2020/12/28 11:56:19;;;;;;;4.50;1.30;;;19.90;51.50;;;;;;4969968;28;20560;-54
2020/12/28 11:58:46;;;;;;;3.53;1.30;;;19.90;51.90;;;;;;4962310;28;20268;-54
2020/12/28 12:01:18;;;;;;;4.03;0.83;;;19.80;51.50;;;;;;4971057;28;20669;-54
2020/12/28 12:03:46;;;;;;;3.53;1.10;;;19.80;51.50;;;;;;4960621;28;20208;-53
2020/12/28 12:06:18;;;;;;;1.03;0.90;;;19.80;51.60;;;;;;4970157;28;20189;-54
2020/12/28 12:11:31;;;;;;;3.07;0.90;;;19.80;51.30;;;;;;4970434;28;20265;-56
2020/12/28 12:13:57;;;;;;;7.60;1.10;;;19.80;51.70;;;;;;4962369;28;20201;-56
2020/12/28 12:16:25;;;;;;;1.80;0.97;;;19.80;51.40;;;;;;4967101;28;20201;-57
2020/12/28 12:18:52;;;;;;;3.30;0.90;;;19.80;51.90;;;;;;4960669;28;20225;-56
2020/12/28 12:21:18;;;;;;;1.93;0.90;;;19.80;51.80;;;;;;4967682;28;20228;-58
2020/12/28 12:23:45;;;;;;;1.37;0.83;;;19.70;51.90;;;;;;4969393;28;20201;-57
2020/12/28 12:26:12;;;;;;;3.07;1.03;;;19.80;51.90;;;;;;4967398;28;20633;-56
2020/12/28 12:28:39;;;;;;;1.63;1.00;;;19.70;51.70;;;;;;4969619;28;20208;-55
2020/12/28 12:31:05;;;;;;;6.03;1.00;;;19.70;51.40;;;;;;4962081;28;20224;-54
2020/12/28 12:33:31;;;;;;;4.27;1.00;;;19.70;50.90;;;;;;4966582;28;20243;-53
2020/12/28 12:35:58;;;;;;;2.23;0.80;;;19.60;50.80;;;;;;4963435;28;20201;-54
2020/12/28 12:38:24;;;;;;;4.03;1.13;;;19.50;50.80;;;;;;4967330;28;20229;-54
2020/12/28 12:40:51;;;;;;;2.63;0.80;;;19.50;51.00;;;;;;4960900;28;20244;-54
2020/12/28 12:43:17;;;;;;;2.93;0.90;;;19.50;51.00;;;;;;4968102;28;20218;-54
2020/12/28 12:45:43;;;;;;;3.90;1.13;;;19.40;51.20;;;;;;4961769;28;20208;-54
2020/12/28 12:48:10;;;;;;;4.37;1.20;;;19.40;51.50;;;;;;4966878;28;20701;-54
2020/12/28 12:50:36;;;;;;;3.53;1.20;;;19.30;51.50;;;;;;4963804;28;20252;-55
2020/12/28 12:53:02;;;;;;;3.73;1.30;;;19.30;51.80;;;;;;4967462;28;20208;-55